sensor_id;sensor_type;location;lat;lon;timestamp;temperature;humidity
56308;DHT22;42217;50.422;7.210;2023-05-16T00:01:25;9.80;99.90
56308;DHT22;42217;50.422;7.210;2023-05-16T00:03:57;9.80;99.90
56308;DHT22;42217;50.422;7.210;2023-05-16T00:06:23;9.80;99.90
56308;DHT22;42217;50.422;7.210;2023-05-16T00:08:48;9.80;99.90
56308;DHT22;42217;50.422;7.210;2023-05-16T00:11:16;9.80;99.90
56308;DHT22;42217;50.422;7.210;2023-05-16T00:13:42;9.80;99.90
56308;DHT22;42217;50.422;7.210;2023-05-16T00:16:08;9.80;99.90
56308;DHT22;42217;50.422;7.210;2023-05-16T00:18:34;9.70;99.90
56308;DHT22;42217;50.422;7.210;2023-05-16T00:21:03;9.70;99.90
56308;DHT22;42217;50.422;7.210;2023-05-16T00:23:29;9.70;99.90
56308;DHT22;42217;50.422;7.210;2023-05-16T00:25:55;9.70;99.90
56308;DHT22;42217;50.422;7.210;2023-05-16T00:28:21;9.70;99.90
56308;DHT22;42217;50.422;7.210;2023-05-16T00:30:47;9.70;99.90
56308;DHT22;42217;50.422;7.210;2023-05-16T00:33:13;9.70;99.90
56308;DHT22;42217;50.422;7.210;2023-05-16T00:35:39;9.70;99.90
56308;DHT22;42217;50.422;7.210;2023-05-16T00:38:04;9.60;99.90
56308;DHT22;42217;50.422;7.210;2023-05-16T00:40:30;9.60;99.90
56308;DHT22;42217;50.422;7.210;2023-05-16T00:42:56;9.50;99.90
56308;DHT22;42217;50.422;7.210;2023-05-16T00:45:22;9.50;99.90
56308;DHT22;42217;50.422;7.210;2023-05-16T00:47:49;9.60;99.90
56308;DHT22;42217;50.422;7.210;2023-05-16T00:50:15;9.50;99.90
56308;DHT22;42217;50.422;7.210;2023-05-16T00:52:41;9.40;99.90
56308;DHT22;42217;50.422;7.210;2023-05-16T00:55:07;9.40;99.90
56308;DHT22;42217;50.422;7.210;2023-05-16T00:57:36;9.40;99.90
56308;DHT22;42217;50.422;7.210;2023-05-16T01:00:03;9.30;99.90
56308;DHT22;42217;50.422;7.210;2023-05-16T01:02:30;9.30;99.90
56308;DHT22;42217;50.422;7.210;2023-05-16T01:04:55;9.20;99.90
56308;DHT22;42217;50.422;7.210;2023-05-16T01:07:22;9.20;99.90
56308;DHT22;42217;50.422;7.210;2023-05-16T01:09:48;9.30;99.90
56308;DHT22;42217;50.422;7.210;2023-05-16T01:12:20;9.10;99.90
56308;DHT22;42217;50.422;7.210;2023-05-16T01:15:01;9.10;99.90
56308;DHT22;42217;50.422;7.210;2023-05-16T01:17:35;9.10;99.90
56308;DHT22;42217;50.422;7.210;2023-05-16T01:22:46;9.10;99.90
56308;DHT22;42217;50.422;7.210;2023-05-16T01:28:06;9.10;99.90
56308;DHT22;42217;50.422;7.210;2023-05-16T01:30:39;9.10;99.90
56308;DHT22;42217;50.422;7.210;2023-05-16T01:33:06;9.10;99.90
56308;DHT22;42217;50.422;7.210;2023-05-16T01:35:33;9.10;99.90
56308;DHT22;42217;50.422;7.210;2023-05-16T01:38:15;9.00;99.90
56308;DHT22;42217;50.422;7.210;2023-05-16T01:41:07;9.00;99.90
56308;DHT22;42217;50.422;7.210;2023-05-16T01:43:45;9.00;99.90
56308;DHT22;42217;50.422;7.210;2023-05-16T01:46:19;9.00;99.90
56308;DHT22;42217;50.422;7.210;2023-05-16T01:49:04;9.00;99.90
56308;DHT22;42217;50.422;7.210;2023-05-16T01:51:34;9.00;99.90
56308;DHT22;42217;50.422;7.210;2023-05-16T01:54:05;9.00;99.90
56308;DHT22;42217;50.422;7.210;2023-05-16T01:56:36;9.00;99.90
56308;DHT22;42217;50.422;7.210;2023-05-16T01:59:03;9.00;99.90
56308;DHT22;42217;50.422;7.210;2023-05-16T02:01:29;9.00;99.90
56308;DHT22;42217;50.422;7.210;2023-05-16T02:03:57;9.00;99.90
56308;DHT22;42217;50.422;7.210;2023-05-16T02:06:23;9.00;99.90
56308;DHT22;42217;50.422;7.210;2023-05-16T02:08:50;8.90;99.90
56308;DHT22;42217;50.422;7.210;2023-05-16T02:11:16;8.90;99.90
56308;DHT22;42217;50.422;7.210;2023-05-16T02:13:41;9.00;99.90
56308;DHT22;42217;50.422;7.210;2023-05-16T02:16:10;9.00;99.90
56308;DHT22;42217;50.422;7.210;2023-05-16T02:18:35;9.00;99.90
56308;DHT22;42217;50.422;7.210;2023-05-16T02:21:01;8.90;99.90
56308;DHT22;42217;50.422;7.210;2023-05-16T02:23:27;8.90;99.90
56308;DHT22;42217;50.422;7.210;2023-05-16T02:25:52;8.90;99.90
56308;DHT22;42217;50.422;7.210;2023-05-16T02:28:18;8.90;99.90
56308;DHT22;42217;50.422;7.210;2023-05-16T02:30:44;8.90;99.90
56308;DHT22;42217;50.422;7.210;2023-05-16T02:33:10;8.90;99.90
56308;DHT22;42217;50.422;7.210;2023-05-16T02:35:35;8.90;99.90
56308;DHT22;42217;50.422;7.210;2023-05-16T02:38:01;8.90;99.90
56308;DHT22;42217;50.422;7.210;2023-05-16T02:40:27;9.00;99.90
56308;DHT22;42217;50.422;7.210;2023-05-16T02:42:52;8.90;99.90
56308;DHT22;42217;50.422;7.210;2023-05-16T02:45:18;9.00;99.90
56308;DHT22;42217;50.422;7.210;2023-05-16T02:47:44;8.90;99.90
56308;DHT22;42217;50.422;7.210;2023-05-16T02:50:09;8.90;99.90
56308;DHT22;42217;50.422;7.210;2023-05-16T02:52:35;8.90;99.90
56308;DHT22;42217;50.422;7.210;2023-05-16T02:55:01;8.90;99.90
56308;DHT22;42217;50.422;7.210;2023-05-16T02:57:27;8.90;99.90
56308;DHT22;42217;50.422;7.210;2023-05-16T02:59:52;8.90;99.90
56308;DHT22;42217;50.422;7.210;2023-05-16T03:02:18;8.90;99.90
56308;DHT22;42217;50.422;7.210;2023-05-16T03:04:43;8.90;99.90
56308;DHT22;42217;50.422;7.210;2023-05-16T03:07:09;8.90;99.90
56308;DHT22;42217;50.422;7.210;2023-05-16T03:09:35;8.90;99.90
56308;DHT22;42217;50.422;7.210;2023-05-16T03:12:01;8.90;99.90
56308;DHT22;42217;50.422;7.210;2023-05-16T03:14:26;8.80;99.90
56308;DHT22;42217;50.422;7.210;2023-05-16T03:16:52;8.80;99.90
56308;DHT22;42217;50.422;7.210;2023-05-16T03:19:18;8.70;99.90
56308;DHT22;42217;50.422;7.210;2023-05-16T03:21:43;8.70;99.90
56308;DHT22;42217;50.422;7.210;2023-05-16T03:24:10;8.50;99.90
56308;DHT22;42217;50.422;7.210;2023-05-16T03:26:35;8.50;99.90
56308;DHT22;42217;50.422;7.210;2023-05-16T03:29:01;8.40;99.90
56308;DHT22;42217;50.422;7.210;2023-05-16T03:31:27;8.40;99.90
56308;DHT22;42217;50.422;7.210;2023-05-16T03:33:53;8.30;99.90
56308;DHT22;42217;50.422;7.210;2023-05-16T03:36:20;8.30;99.90
56308;DHT22;42217;50.422;7.210;2023-05-16T03:38:47;8.30;99.90
56308;DHT22;42217;50.422;7.210;2023-05-16T03:41:13;8.30;99.90
56308;DHT22;42217;50.422;7.210;2023-05-16T03:43:38;8.20;99.90
56308;DHT22;42217;50.422;7.210;2023-05-16T03:46:05;8.20;99.90
56308;DHT22;42217;50.422;7.210;2023-05-16T03:48:30;8.20;99.90
56308;DHT22;42217;50.422;7.210;2023-05-16T03:50:56;8.10;99.90
56308;DHT22;42217;50.422;7.210;2023-05-16T03:53:22;8.20;99.90
56308;DHT22;42217;50.422;7.210;2023-05-16T03:55:47;8.10;99.90
56308;DHT22;42217;50.422;7.210;2023-05-16T03:58:13;8.10;99.90
56308;DHT22;42217;50.422;7.210;2023-05-16T04:00:38;8.00;99.90
56308;DHT22;42217;50.422;7.210;2023-05-16T04:03:04;8.00;99.90
56308;DHT22;42217;50.422;7.210;2023-05-16T04:05:30;7.90;99.90
56308;DHT22;42217;50.422;7.210;2023-05-16T04:07:56;7.90;99.90
56308;DHT22;42217;50.422;7.210;2023-05-16T04:10:22;7.80;99.90
56308;DHT22;42217;50.422;7.210;2023-05-16T04:12:48;7.80;99.90
56308;DHT22;42217;50.422;7.210;2023-05-16T04:15:13;7.70;99.90
56308;DHT22;42217;50.422;7.210;2023-05-16T04:17:39;7.70;99.90
56308;DHT22;42217;50.422;7.210;2023-05-16T04:20:05;7.70;99.90
56308;DHT22;42217;50.422;7.210;2023-05-16T04:22:31;7.70;99.90
56308;DHT22;42217;50.422;7.210;2023-05-16T04:24:57;7.60;99.90
56308;DHT22;42217;50.422;7.210;2023-05-16T04:27:23;7.60;99.90
56308;DHT22;42217;50.422;7.210;2023-05-16T04:29:49;7.60;99.90
56308;DHT22;42217;50.422;7.210;2023-05-16T04:32:15;7.60;99.90
56308;DHT22;42217;50.422;7.210;2023-05-16T04:34:41;7.50;99.90
56308;DHT22;42217;50.422;7.210;2023-05-16T04:37:09;7.50;99.90
56308;DHT22;42217;50.422;7.210;2023-05-16T04:39:36;7.50;99.90
56308;DHT22;42217;50.422;7.210;2023-05-16T04:42:02;7.50;99.90
56308;DHT22;42217;50.422;7.210;2023-05-16T04:44:28;7.50;99.90
56308;DHT22;42217;50.422;7.210;2023-05-16T04:46:54;7.50;99.90
56308;DHT22;42217;50.422;7.210;2023-05-16T04:49:20;7.50;99.90
56308;DHT22;42217;50.422;7.210;2023-05-16T04:51:47;7.50;99.90
56308;DHT22;42217;50.422;7.210;2023-05-16T04:54:13;7.50;99.90
56308;DHT22;42217;50.422;7.210;2023-05-16T04:56:39;7.40;99.90
56308;DHT22;42217;50.422;7.210;2023-05-16T04:59:05;7.40;99.90
56308;DHT22;42217;50.422;7.210;2023-05-16T05:01:31;7.40;99.90
56308;DHT22;42217;50.422;7.210;2023-05-16T05:03:57;7.40;99.90
56308;DHT22;42217;50.422;7.210;2023-05-16T05:06:22;7.40;99.90
56308;DHT22;42217;50.422;7.210;2023-05-16T05:08:48;7.40;99.90
56308;DHT22;42217;50.422;7.210;2023-05-16T05:11:14;7.40;99.90
56308;DHT22;42217;50.422;7.210;2023-05-16T05:13:39;7.40;99.90
56308;DHT22;42217;50.422;7.210;2023-05-16T05:16:05;7.40;99.90
56308;DHT22;42217;50.422;7.210;2023-05-16T05:18:31;7.30;99.90
56308;DHT22;42217;50.422;7.210;2023-05-16T05:20:57;7.30;99.90
56308;DHT22;42217;50.422;7.210;2023-05-16T05:23:23;7.30;99.90
56308;DHT22;42217;50.422;7.210;2023-05-16T05:25:49;7.30;99.90
56308;DHT22;42217;50.422;7.210;2023-05-16T05:28:14;7.30;99.90
56308;DHT22;42217;50.422;7.210;2023-05-16T05:30:41;7.30;99.90
56308;DHT22;42217;50.422;7.210;2023-05-16T05:33:06;7.30;99.90
56308;DHT22;42217;50.422;7.210;2023-05-16T05:35:32;7.30;99.90
56308;DHT22;42217;50.422;7.210;2023-05-16T05:37:58;7.20;99.90
56308;DHT22;42217;50.422;7.210;2023-05-16T05:40:24;7.30;99.90
56308;DHT22;42217;50.422;7.210;2023-05-16T05:42:49;7.20;99.90
56308;DHT22;42217;50.422;7.210;2023-05-16T05:45:15;7.20;99.90
56308;DHT22;42217;50.422;7.210;2023-05-16T05:47:42;7.20;99.90
56308;DHT22;42217;50.422;7.210;2023-05-16T05:50:08;7.20;99.90
56308;DHT22;42217;50.422;7.210;2023-05-16T05:52:36;7.20;99.90
56308;DHT22;42217;50.422;7.210;2023-05-16T05:55:02;7.10;99.90
56308;DHT22;42217;50.422;7.210;2023-05-16T05:57:28;7.10;99.90
56308;DHT22;42217;50.422;7.210;2023-05-16T05:59:54;7.10;99.90
56308;DHT22;42217;50.422;7.210;2023-05-16T06:02:20;7.10;99.90
56308;DHT22;42217;50.422;7.210;2023-05-16T06:04:45;7.10;99.90
56308;DHT22;42217;50.422;7.210;2023-05-16T06:07:11;7.00;99.90
56308;DHT22;42217;50.422;7.210;2023-05-16T06:09:37;7.00;99.90
56308;DHT22;42217;50.422;7.210;2023-05-16T06:12:03;7.00;99.90
56308;DHT22;42217;50.422;7.210;2023-05-16T06:14:29;7.00;99.90
56308;DHT22;42217;50.422;7.210;2023-05-16T06:16:55;7.00;99.90
56308;DHT22;42217;50.422;7.210;2023-05-16T06:19:20;7.00;99.90
56308;DHT22;42217;50.422;7.210;2023-05-16T06:21:46;7.00;99.90
56308;DHT22;42217;50.422;7.210;2023-05-16T06:24:12;7.00;99.90
56308;DHT22;42217;50.422;7.210;2023-05-16T06:26:37;6.90;99.90
56308;DHT22;42217;50.422;7.210;2023-05-16T06:29:03;6.80;99.90
56308;DHT22;42217;50.422;7.210;2023-05-16T06:31:29;6.80;99.90
56308;DHT22;42217;50.422;7.210;2023-05-16T06:33:55;6.80;99.90
56308;DHT22;42217;50.422;7.210;2023-05-16T06:36:21;6.90;99.90
56308;DHT22;42217;50.422;7.210;2023-05-16T06:38:46;6.90;99.90
56308;DHT22;42217;50.422;7.210;2023-05-16T06:41:12;6.80;99.90
56308;DHT22;42217;50.422;7.210;2023-05-16T06:43:39;6.80;99.90
56308;DHT22;42217;50.422;7.210;2023-05-16T06:46:04;6.80;99.90
56308;DHT22;42217;50.422;7.210;2023-05-16T06:48:30;6.90;99.90
56308;DHT22;42217;50.422;7.210;2023-05-16T06:50:56;6.90;99.90
56308;DHT22;42217;50.422;7.210;2023-05-16T06:53:22;7.10;99.90
56308;DHT22;42217;50.422;7.210;2023-05-16T06:55:47;7.10;99.90
56308;DHT22;42217;50.422;7.210;2023-05-16T06:58:13;7.10;99.90
56308;DHT22;42217;50.422;7.210;2023-05-16T07:00:40;7.10;99.90
56308;DHT22;42217;50.422;7.210;2023-05-16T07:03:06;7.10;99.90
56308;DHT22;42217;50.422;7.210;2023-05-16T07:05:31;7.20;99.90
56308;DHT22;42217;50.422;7.210;2023-05-16T07:07:57;7.10;99.90
56308;DHT22;42217;50.422;7.210;2023-05-16T07:10:23;7.10;99.90
56308;DHT22;42217;50.422;7.210;2023-05-16T07:12:50;7.00;99.90
56308;DHT22;42217;50.422;7.210;2023-05-16T07:15:15;7.10;99.90
56308;DHT22;42217;50.422;7.210;2023-05-16T07:17:41;7.40;99.90
56308;DHT22;42217;50.422;7.210;2023-05-16T07:20:07;7.70;99.90
56308;DHT22;42217;50.422;7.210;2023-05-16T07:22:38;8.00;99.90
56308;DHT22;42217;50.422;7.210;2023-05-16T07:25:04;8.10;99.90
56308;DHT22;42217;50.422;7.210;2023-05-16T07:27:30;8.00;99.90
56308;DHT22;42217;50.422;7.210;2023-05-16T07:29:56;7.80;99.90
56308;DHT22;42217;50.422;7.210;2023-05-16T07:32:22;7.60;99.90
56308;DHT22;42217;50.422;7.210;2023-05-16T07:34:48;7.40;99.90
56308;DHT22;42217;50.422;7.210;2023-05-16T07:37:13;7.30;99.90
56308;DHT22;42217;50.422;7.210;2023-05-16T07:39:40;7.20;99.90
56308;DHT22;42217;50.422;7.210;2023-05-16T07:42:07;7.30;99.90
56308;DHT22;42217;50.422;7.210;2023-05-16T07:44:33;7.50;99.90
56308;DHT22;42217;50.422;7.210;2023-05-16T07:46:59;7.70;99.90
56308;DHT22;42217;50.422;7.210;2023-05-16T07:49:25;8.00;99.90
56308;DHT22;42217;50.422;7.210;2023-05-16T07:51:50;8.20;99.90
56308;DHT22;42217;50.422;7.210;2023-05-16T07:54:16;8.40;99.90
56308;DHT22;42217;50.422;7.210;2023-05-16T07:56:42;8.60;99.90
56308;DHT22;42217;50.422;7.210;2023-05-16T07:59:08;8.80;99.90
56308;DHT22;42217;50.422;7.210;2023-05-16T08:01:34;9.00;99.90
56308;DHT22;42217;50.422;7.210;2023-05-16T08:04:00;9.20;99.90
56308;DHT22;42217;50.422;7.210;2023-05-16T08:06:25;9.30;99.90
56308;DHT22;42217;50.422;7.210;2023-05-16T08:08:51;9.40;99.90
56308;DHT22;42217;50.422;7.210;2023-05-16T08:11:18;9.60;99.90
56308;DHT22;42217;50.422;7.210;2023-05-16T08:13:43;9.70;99.90
56308;DHT22;42217;50.422;7.210;2023-05-16T08:16:09;9.80;99.90
56308;DHT22;42217;50.422;7.210;2023-05-16T08:18:36;10.00;99.90
56308;DHT22;42217;50.422;7.210;2023-05-16T08:21:01;10.00;99.90
56308;DHT22;42217;50.422;7.210;2023-05-16T08:23:27;10.00;99.90
56308;DHT22;42217;50.422;7.210;2023-05-16T08:25:53;10.10;99.90
56308;DHT22;42217;50.422;7.210;2023-05-16T08:28:19;10.00;99.90
56308;DHT22;42217;50.422;7.210;2023-05-16T08:30:44;9.60;99.90
56308;DHT22;42217;50.422;7.210;2023-05-16T08:33:10;9.50;99.90
56308;DHT22;42217;50.422;7.210;2023-05-16T08:35:36;9.50;99.90
56308;DHT22;42217;50.422;7.210;2023-05-16T08:38:01;9.70;99.90
56308;DHT22;42217;50.422;7.210;2023-05-16T08:40:28;10.10;99.90
56308;DHT22;42217;50.422;7.210;2023-05-16T08:42:54;10.00;99.90
56308;DHT22;42217;50.422;7.210;2023-05-16T08:45:21;10.20;99.90
56308;DHT22;42217;50.422;7.210;2023-05-16T08:47:49;10.50;99.90
56308;DHT22;42217;50.422;7.210;2023-05-16T08:50:18;10.70;99.90
56308;DHT22;42217;50.422;7.210;2023-05-16T08:52:46;11.00;99.90
56308;DHT22;42217;50.422;7.210;2023-05-16T08:55:16;11.00;99.90
56308;DHT22;42217;50.422;7.210;2023-05-16T08:57:44;10.80;99.90
56308;DHT22;42217;50.422;7.210;2023-05-16T09:00:11;10.60;99.90
56308;DHT22;42217;50.422;7.210;2023-05-16T09:02:40;10.60;99.90
56308;DHT22;42217;50.422;7.210;2023-05-16T09:05:25;10.70;99.90
56308;DHT22;42217;50.422;7.210;2023-05-16T09:07:52;10.70;99.90
56308;DHT22;42217;50.422;7.210;2023-05-16T09:10:18;10.70;99.90
56308;DHT22;42217;50.422;7.210;2023-05-16T09:12:44;10.70;99.90
56308;DHT22;42217;50.422;7.210;2023-05-16T09:15:10;11.00;99.90
56308;DHT22;42217;50.422;7.210;2023-05-16T09:17:36;10.90;99.90
56308;DHT22;42217;50.422;7.210;2023-05-16T09:22:35;10.30;99.90
56308;DHT22;42217;50.422;7.210;2023-05-16T09:25:01;10.30;99.90
56308;DHT22;42217;50.422;7.210;2023-05-16T09:27:30;10.50;99.90
56308;DHT22;42217;50.422;7.210;2023-05-16T09:29:57;10.60;99.90
56308;DHT22;42217;50.422;7.210;2023-05-16T09:32:23;10.90;99.90
56308;DHT22;42217;50.422;7.210;2023-05-16T09:34:49;11.20;99.90
56308;DHT22;42217;50.422;7.210;2023-05-16T09:37:16;11.20;99.90
56308;DHT22;42217;50.422;7.210;2023-05-16T09:39:47;11.00;17.70
56308;DHT22;42217;50.422;7.210;2023-05-16T09:42:14;11.10;15.40
56308;DHT22;42217;50.422;7.210;2023-05-16T09:44:40;11.10;1.00
56308;DHT22;42217;50.422;7.210;2023-05-16T09:47:06;11.20;9.20
56308;DHT22;42217;50.422;7.210;2023-05-16T09:49:32;11.00;14.60
56308;DHT22;42217;50.422;7.210;2023-05-16T09:52:01;11.10;32.30
56308;DHT22;42217;50.422;7.210;2023-05-16T09:54:32;11.30;26.50
56308;DHT22;42217;50.422;7.210;2023-05-16T09:56:58;11.50;1.00
56308;DHT22;42217;50.422;7.210;2023-05-16T09:59:27;11.60;1.00
56308;DHT22;42217;50.422;7.210;2023-05-16T10:01:53;11.70;1.00
56308;DHT22;42217;50.422;7.210;2023-05-16T10:04:21;11.70;1.00
56308;DHT22;42217;50.422;7.210;2023-05-16T10:06:49;11.50;1.00
56308;DHT22;42217;50.422;7.210;2023-05-16T10:09:17;11.30;22.70
56308;DHT22;42217;50.422;7.210;2023-05-16T10:11:44;11.00;1.00
56308;DHT22;42217;50.422;7.210;2023-05-16T10:14:11;10.90;23.40
56308;DHT22;42217;50.422;7.210;2023-05-16T10:16:40;11.10;9.90
56308;DHT22;42217;50.422;7.210;2023-05-16T10:19:07;11.20;1.00
56308;DHT22;42217;50.422;7.210;2023-05-16T10:21:33;11.30;5.60
56308;DHT22;42217;50.422;7.210;2023-05-16T10:24:03;11.60;9.10
56308;DHT22;42217;50.422;7.210;2023-05-16T10:26:31;12.10;1.00
56308;DHT22;42217;50.422;7.210;2023-05-16T10:29:00;12.20;1.00
56308;DHT22;42217;50.422;7.210;2023-05-16T10:31:28;12.40;1.00
56308;DHT22;42217;50.422;7.210;2023-05-16T10:33:55;12.50;1.00
56308;DHT22;42217;50.422;7.210;2023-05-16T10:36:22;12.50;99.90
56308;DHT22;42217;50.422;7.210;2023-05-16T10:38:48;11.90;1.00
56308;DHT22;42217;50.422;7.210;2023-05-16T10:41:15;11.80;99.90
56308;DHT22;42217;50.422;7.210;2023-05-16T10:43:44;11.90;1.00
56308;DHT22;42217;50.422;7.210;2023-05-16T10:46:11;12.30;1.00
56308;DHT22;42217;50.422;7.210;2023-05-16T10:48:40;12.80;99.90
56308;DHT22;42217;50.422;7.210;2023-05-16T10:53:50;12.10;99.90
56308;DHT22;42217;50.422;7.210;2023-05-16T10:56:22;11.90;99.90
56308;DHT22;42217;50.422;7.210;2023-05-16T10:58:48;12.00;99.90
56308;DHT22;42217;50.422;7.210;2023-05-16T11:06:24;12.50;99.90
56308;DHT22;42217;50.422;7.210;2023-05-16T11:11:53;11.80;1.00
56308;DHT22;42217;50.422;7.210;2023-05-16T11:17:10;11.90;99.90
56308;DHT22;42217;50.422;7.210;2023-05-16T11:22:29;12.40;99.90
56308;DHT22;42217;50.422;7.210;2023-05-16T11:25:03;12.60;99.90
56308;DHT22;42217;50.422;7.210;2023-05-16T11:27:34;12.60;99.90
56308;DHT22;42217;50.422;7.210;2023-05-16T11:32:38;12.10;99.90
56308;DHT22;42217;50.422;7.210;2023-05-16T11:35:06;12.40;99.90
56308;DHT22;42217;50.422;7.210;2023-05-16T11:37:34;12.80;99.90
56308;DHT22;42217;50.422;7.210;2023-05-16T11:40:06;12.60;20.60
56308;DHT22;42217;50.422;7.210;2023-05-16T11:42:46;12.40;99.90
56308;DHT22;42217;50.422;7.210;2023-05-16T11:45:17;12.40;34.80
56308;DHT22;42217;50.422;7.210;2023-05-16T11:47:45;12.60;1.00
56308;DHT22;42217;50.422;7.210;2023-05-16T11:50:16;12.90;99.90
56308;DHT22;42217;50.422;7.210;2023-05-16T11:52:45;13.30;99.90
56308;DHT22;42217;50.422;7.210;2023-05-16T11:55:11;13.20;99.90
56308;DHT22;42217;50.422;7.210;2023-05-16T11:57:38;12.80;99.90
56308;DHT22;42217;50.422;7.210;2023-05-16T12:00:04;12.70;99.90
56308;DHT22;42217;50.422;7.210;2023-05-16T12:02:38;13.00;14.90
56308;DHT22;42217;50.422;7.210;2023-05-16T12:05:08;13.10;99.90
56308;DHT22;42217;50.422;7.210;2023-05-16T12:07:35;13.00;1.00
56308;DHT22;42217;50.422;7.210;2023-05-16T12:10:05;12.60;99.90
56308;DHT22;42217;50.422;7.210;2023-05-16T12:12:32;12.60;99.90
56308;DHT22;42217;50.422;7.210;2023-05-16T12:14:58;12.80;99.90
56308;DHT22;42217;50.422;7.210;2023-05-16T12:17:24;12.90;99.90
56308;DHT22;42217;50.422;7.210;2023-05-16T12:19:50;13.20;99.90
56308;DHT22;42217;50.422;7.210;2023-05-16T12:22:16;13.60;99.90
56308;DHT22;42217;50.422;7.210;2023-05-16T12:24:45;14.10;99.90
56308;DHT22;42217;50.422;7.210;2023-05-16T12:27:11;14.10;99.90
56308;DHT22;42217;50.422;7.210;2023-05-16T12:29:37;13.70;99.90
56308;DHT22;42217;50.422;7.210;2023-05-16T12:32:03;13.70;99.90
56308;DHT22;42217;50.422;7.210;2023-05-16T12:34:32;14.10;99.90
56308;DHT22;42217;50.422;7.210;2023-05-16T12:36:58;14.10;99.90
56308;DHT22;42217;50.422;7.210;2023-05-16T12:39:25;14.00;99.90
56308;DHT22;42217;50.422;7.210;2023-05-16T12:41:51;13.70;99.90
56308;DHT22;42217;50.422;7.210;2023-05-16T12:44:18;13.30;71.50
56308;DHT22;42217;50.422;7.210;2023-05-16T12:46:50;13.40;99.90
56308;DHT22;42217;50.422;7.210;2023-05-16T12:49:20;13.70;99.90
56308;DHT22;42217;50.422;7.210;2023-05-16T12:51:52;13.90;1.00
56308;DHT22;42217;50.422;7.210;2023-05-16T12:54:18;14.30;99.90
56308;DHT22;42217;50.422;7.210;2023-05-16T12:56:44;14.20;99.90
56308;DHT22;42217;50.422;7.210;2023-05-16T12:59:10;13.90;53.70
56308;DHT22;42217;50.422;7.210;2023-05-16T13:01:39;14.40;1.00
56308;DHT22;42217;50.422;7.210;2023-05-16T13:04:06;15.00;1.00
56308;DHT22;42217;50.422;7.210;2023-05-16T13:06:33;14.40;1.00
56308;DHT22;42217;50.422;7.210;2023-05-16T13:08:58;14.00;99.90
56308;DHT22;42217;50.422;7.210;2023-05-16T13:11:24;13.60;99.90
56308;DHT22;42217;50.422;7.210;2023-05-16T13:13:51;13.60;34.80
56308;DHT22;42217;50.422;7.210;2023-05-16T13:16:17;14.00;1.00
56308;DHT22;42217;50.422;7.210;2023-05-16T13:18:43;14.30;35.40
56308;DHT22;42217;50.422;7.210;2023-05-16T13:21:08;14.20;99.90
56308;DHT22;42217;50.422;7.210;2023-05-16T13:23:34;14.60;99.90
56308;DHT22;42217;50.422;7.210;2023-05-16T13:25:59;15.60;87.70
56308;DHT22;42217;50.422;7.210;2023-05-16T13:28:25;15.30;1.00
56308;DHT22;42217;50.422;7.210;2023-05-16T13:30:51;15.80;70.30
56308;DHT22;42217;50.422;7.210;2023-05-16T13:33:17;15.50;60.30
56308;DHT22;42217;50.422;7.210;2023-05-16T13:35:43;15.10;99.90
56308;DHT22;42217;50.422;7.210;2023-05-16T13:38:09;15.40;99.90
56308;DHT22;42217;50.422;7.210;2023-05-16T13:40:35;16.00;93.90
56308;DHT22;42217;50.422;7.210;2023-05-16T13:43:01;15.70;99.90
56308;DHT22;42217;50.422;7.210;2023-05-16T13:45:27;15.30;99.90
56308;DHT22;42217;50.422;7.210;2023-05-16T13:47:52;15.10;99.90
56308;DHT22;42217;50.422;7.210;2023-05-16T13:50:18;14.70;99.90
56308;DHT22;42217;50.422;7.210;2023-05-16T13:52:45;14.20;74.00
56308;DHT22;42217;50.422;7.210;2023-05-16T13:55:12;13.80;49.80
56308;DHT22;42217;50.422;7.210;2023-05-16T13:57:38;13.60;1.00
56308;DHT22;42217;50.422;7.210;2023-05-16T14:00:04;13.60;21.30
56308;DHT22;42217;50.422;7.210;2023-05-16T14:02:39;14.50;99.90
56308;DHT22;42217;50.422;7.210;2023-05-16T14:05:06;15.50;8.80
56308;DHT22;42217;50.422;7.210;2023-05-16T14:07:33;15.40;1.00
56308;DHT22;42217;50.422;7.210;2023-05-16T14:09:58;14.60;99.90
56308;DHT22;42217;50.422;7.210;2023-05-16T14:12:24;15.00;99.90
56308;DHT22;42217;50.422;7.210;2023-05-16T14:14:49;14.70;74.20
56308;DHT22;42217;50.422;7.210;2023-05-16T14:17:15;14.50;99.90
56308;DHT22;42217;50.422;7.210;2023-05-16T14:19:41;15.50;99.90
56308;DHT22;42217;50.422;7.210;2023-05-16T14:22:07;16.60;73.20
56308;DHT22;42217;50.422;7.210;2023-05-16T14:24:33;17.40;12.40
56308;DHT22;42217;50.422;7.210;2023-05-16T14:26:58;18.60;99.90
56308;DHT22;42217;50.422;7.210;2023-05-16T14:29:25;18.30;1.00
56308;DHT22;42217;50.422;7.210;2023-05-16T14:31:50;17.00;1.00
56308;DHT22;42217;50.422;7.210;2023-05-16T14:34:16;15.50;99.90
56308;DHT22;42217;50.422;7.210;2023-05-16T14:36:42;15.20;99.90
56308;DHT22;42217;50.422;7.210;2023-05-16T14:39:08;16.40;99.90
56308;DHT22;42217;50.422;7.210;2023-05-16T14:41:34;17.70;1.00
56308;DHT22;42217;50.422;7.210;2023-05-16T14:43:59;17.50;99.90
56308;DHT22;42217;50.422;7.210;2023-05-16T14:46:25;16.60;80.30
56308;DHT22;42217;50.422;7.210;2023-05-16T14:48:51;16.00;1.00
56308;DHT22;42217;50.422;7.210;2023-05-16T14:51:17;15.80;1.00
56308;DHT22;42217;50.422;7.210;2023-05-16T14:53:42;15.10;1.00
56308;DHT22;42217;50.422;7.210;2023-05-16T14:56:08;14.20;1.00
56308;DHT22;42217;50.422;7.210;2023-05-16T14:58:33;13.60;1.00
56308;DHT22;42217;50.422;7.210;2023-05-16T15:01:00;13.30;1.00
56308;DHT22;42217;50.422;7.210;2023-05-16T15:03:25;13.00;99.90
56308;DHT22;42217;50.422;7.210;2023-05-16T15:05:51;13.00;99.90
56308;DHT22;42217;50.422;7.210;2023-05-16T15:08:17;13.70;99.90
56308;DHT22;42217;50.422;7.210;2023-05-16T15:10:43;15.20;8.70
56308;DHT22;42217;50.422;7.210;2023-05-16T15:13:08;16.70;99.90
56308;DHT22;42217;50.422;7.210;2023-05-16T15:15:34;17.30;71.60
56308;DHT22;42217;50.422;7.210;2023-05-16T15:18:03;18.50;99.90
56308;DHT22;42217;50.422;7.210;2023-05-16T15:20:29;19.80;1.00
56308;DHT22;42217;50.422;7.210;2023-05-16T15:22:54;19.70;1.00
56308;DHT22;42217;50.422;7.210;2023-05-16T15:25:20;18.10;1.00
56308;DHT22;42217;50.422;7.210;2023-05-16T15:27:46;17.60;7.50
56308;DHT22;42217;50.422;7.210;2023-05-16T15:30:12;18.10;99.90
56308;DHT22;42217;50.422;7.210;2023-05-16T15:32:38;18.50;99.90
56308;DHT22;42217;50.422;7.210;2023-05-16T15:35:05;17.90;1.00
56308;DHT22;42217;50.422;7.210;2023-05-16T15:37:31;17.20;99.90
56308;DHT22;42217;50.422;7.210;2023-05-16T15:39:57;16.10;99.90
56308;DHT22;42217;50.422;7.210;2023-05-16T15:42:23;15.20;1.00
56308;DHT22;42217;50.422;7.210;2023-05-16T15:44:48;15.80;99.90
56308;DHT22;42217;50.422;7.210;2023-05-16T15:47:14;17.40;99.90
56308;DHT22;42217;50.422;7.210;2023-05-16T15:49:40;18.20;99.90
56308;DHT22;42217;50.422;7.210;2023-05-16T15:52:06;17.00;99.90
56308;DHT22;42217;50.422;7.210;2023-05-16T15:54:32;15.90;1.00
56308;DHT22;42217;50.422;7.210;2023-05-16T15:56:58;15.00;99.90
56308;DHT22;42217;50.422;7.210;2023-05-16T15:59:24;14.20;16.60
56308;DHT22;42217;50.422;7.210;2023-05-16T16:01:49;14.30;67.10
56308;DHT22;42217;50.422;7.210;2023-05-16T16:04:16;14.70;99.90